sensor_id;sensor_type;location;lat;lon;timestamp;pressure;altitude;pressure_sealevel;temperature;humidity
42169;BME280;27838;43.858;25.974;2023-07-31T00:01:25;100382.44;;;28.90;45.04
42169;BME280;27838;43.858;25.974;2023-07-31T00:03:52;100392.47;;;28.77;44.30
42169;BME280;27838;43.858;25.974;2023-07-31T00:06:18;100391.03;;;28.73;44.84
42169;BME280;27838;43.858;25.974;2023-07-31T00:08:45;100393.84;;;28.60;44.22
42169;BME280;27838;43.858;25.974;2023-07-31T00:11:11;100397.75;;;28.56;44.53
42169;BME280;27838;43.858;25.974;2023-07-31T00:13:38;100396.53;;;28.60;43.90
42169;BME280;27838;43.858;25.974;2023-07-31T00:16:04;100405.56;;;28.59;43.68
42169;BME280;27838;43.858;25.974;2023-07-31T00:18:31;100389.47;;;28.59;43.25
42169;BME280;27838;43.858;25.974;2023-07-31T00:20:57;100390.91;;;28.63;43.52
42169;BME280;27838;43.858;25.974;2023-07-31T00:23:24;100389.56;;;28.69;43.69
42169;BME280;27838;43.858;25.974;2023-07-31T00:25:50;100393.84;;;28.71;43.34
42169;BME280;27838;43.858;25.974;2023-07-31T00:28:17;100394.56;;;28.73;43.31
42169;BME280;27838;43.858;25.974;2023-07-31T00:30:43;100396.00;;;28.77;43.28
42169;BME280;27838;43.858;25.974;2023-07-31T00:33:10;100395.03;;;28.78;43.19
42169;BME280;27838;43.858;25.974;2023-07-31T00:35:36;100405.53;;;28.81;43.26
42169;BME280;27838;43.858;25.974;2023-07-31T00:38:03;100401.72;;;28.84;42.80
42169;BME280;27838;43.858;25.974;2023-07-31T00:40:29;100400.41;;;28.78;42.82
42169;BME280;27838;43.858;25.974;2023-07-31T00:43:00;100384.91;;;28.82;42.74
42169;BME280;27838;43.858;25.974;2023-07-31T00:45:26;100383.78;;;28.85;42.90
42169;BME280;27838;43.858;25.974;2023-07-31T00:47:54;100391.75;;;28.75;42.74
42169;BME280;27838;43.858;25.974;2023-07-31T00:50:22;100395.41;;;28.74;43.31
42169;BME280;27838;43.858;25.974;2023-07-31T00:52:50;100388.47;;;28.60;43.90
42169;BME280;27838;43.858;25.974;2023-07-31T00:55:17;100386.53;;;28.51;45.06
42169;BME280;27838;43.858;25.974;2023-07-31T00:57:45;100386.03;;;28.34;45.64
42169;BME280;27838;43.858;25.974;2023-07-31T01:00:12;100392.75;;;28.29;46.00
42169;BME280;27838;43.858;25.974;2023-07-31T01:02:38;100389.47;;;28.14;46.52
42169;BME280;27838;43.858;25.974;2023-07-31T01:05:05;100381.53;;;28.01;46.85
42169;BME280;27838;43.858;25.974;2023-07-31T01:07:41;100377.53;;;27.95;47.58
42169;BME280;27838;43.858;25.974;2023-07-31T01:10:17;100371.75;;;27.88;47.55
42169;BME280;27838;43.858;25.974;2023-07-31T01:12:47;100370.59;;;27.93;47.13
42169;BME280;27838;43.858;25.974;2023-07-31T01:15:14;100372.28;;;27.94;47.43
42169;BME280;27838;43.858;25.974;2023-07-31T01:17:43;100363.06;;;27.98;47.42
42169;BME280;27838;43.858;25.974;2023-07-31T01:20:24;100364.38;;;28.03;47.11
42169;BME280;27838;43.858;25.974;2023-07-31T01:28:14;100363.59;;;27.79;48.52
42169;BME280;27838;43.858;25.974;2023-07-31T01:30:44;100359.34;;;27.76;48.86
42169;BME280;27838;43.858;25.974;2023-07-31T01:33:15;100353.59;;;27.69;48.41
42169;BME280;27838;43.858;25.974;2023-07-31T01:35:45;100359.09;;;27.68;48.63
42169;BME280;27838;43.858;25.974;2023-07-31T01:38:12;100366.75;;;27.73;48.38
42169;BME280;27838;43.858;25.974;2023-07-31T01:40:41;100368.69;;;27.71;48.49
42169;BME280;27838;43.858;25.974;2023-07-31T01:43:08;100373.09;;;27.72;49.45
42169;BME280;27838;43.858;25.974;2023-07-31T01:45:35;100377.34;;;27.74;49.85
42169;BME280;27838;43.858;25.974;2023-07-31T01:48:01;100380.63;;;27.66;51.20
42169;BME280;27838;43.858;25.974;2023-07-31T01:50:28;100390.34;;;27.56;51.46
42169;BME280;27838;43.858;25.974;2023-07-31T01:52:57;100394.19;;;27.52;52.21
42169;BME280;27838;43.858;25.974;2023-07-31T01:55:23;100401.38;;;27.52;53.29
42169;BME280;27838;43.858;25.974;2023-07-31T01:57:51;100406.94;;;27.37;54.93
42169;BME280;27838;43.858;25.974;2023-07-31T02:00:18;100402.19;;;27.29;55.58
42169;BME280;27838;43.858;25.974;2023-07-31T02:02:44;100412.56;;;27.21;56.87
42169;BME280;27838;43.858;25.974;2023-07-31T02:05:11;100418.97;;;27.19;56.89
42169;BME280;27838;43.858;25.974;2023-07-31T02:07:37;100409.59;;;27.13;57.19
42169;BME280;27838;43.858;25.974;2023-07-31T02:10:04;100412.59;;;27.08;58.09
42169;BME280;27838;43.858;25.974;2023-07-31T02:12:31;100405.91;;;27.03;58.13
42169;BME280;27838;43.858;25.974;2023-07-31T02:14:59;100409.56;;;27.02;58.47
42169;BME280;27838;43.858;25.974;2023-07-31T02:17:25;100420.38;;;27.00;58.63
42169;BME280;27838;43.858;25.974;2023-07-31T02:19:52;100424.97;;;26.98;58.73
42169;BME280;27838;43.858;25.974;2023-07-31T02:22:18;100422.94;;;27.02;59.03
42169;BME280;27838;43.858;25.974;2023-07-31T02:24:45;100426.56;;;27.01;59.44
42169;BME280;27838;43.858;25.974;2023-07-31T02:27:11;100427.47;;;26.88;59.99
42169;BME280;27838;43.858;25.974;2023-07-31T02:29:38;100430.88;;;26.90;60.51
42169;BME280;27838;43.858;25.974;2023-07-31T02:32:05;100444.25;;;26.90;60.35
42169;BME280;27838;43.858;25.974;2023-07-31T02:34:31;100447.59;;;26.81;60.60
42169;BME280;27838;43.858;25.974;2023-07-31T02:36:58;100447.28;;;26.73;60.19
42169;BME280;27838;43.858;25.974;2023-07-31T02:39:24;100452.63;;;26.73;60.71
42169;BME280;27838;43.858;25.974;2023-07-31T02:41:51;100456.91;;;26.75;61.40
42169;BME280;27838;43.858;25.974;2023-07-31T02:44:17;100461.75;;;26.70;60.63
42169;BME280;27838;43.858;25.974;2023-07-31T02:46:45;100457.47;;;26.68;60.82
42169;BME280;27838;43.858;25.974;2023-07-31T02:49:12;100456.16;;;26.61;60.93
42169;BME280;27838;43.858;25.974;2023-07-31T02:51:38;100455.31;;;26.47;61.12
42169;BME280;27838;43.858;25.974;2023-07-31T02:54:05;100452.34;;;26.39;61.76
42169;BME280;27838;43.858;25.974;2023-07-31T02:56:31;100455.78;;;26.41;62.32
42169;BME280;27838;43.858;25.974;2023-07-31T02:58:58;100460.16;;;26.42;62.27
42169;BME280;27838;43.858;25.974;2023-07-31T03:01:24;100459.63;;;26.37;62.39
42169;BME280;27838;43.858;25.974;2023-07-31T03:03:51;100455.53;;;26.31;62.68
42169;BME280;27838;43.858;25.974;2023-07-31T03:06:17;100459.63;;;26.37;63.43
42169;BME280;27838;43.858;25.974;2023-07-31T03:08:43;100455.13;;;26.37;63.73
42169;BME280;27838;43.858;25.974;2023-07-31T03:11:09;100452.16;;;26.42;63.61
42169;BME280;27838;43.858;25.974;2023-07-31T03:13:36;100453.63;;;26.46;62.95
42169;BME280;27838;43.858;25.974;2023-07-31T03:16:02;100445.28;;;26.51;63.27
42169;BME280;27838;43.858;25.974;2023-07-31T03:18:29;100450.28;;;26.55;62.47
42169;BME280;27838;43.858;25.974;2023-07-31T03:20:55;100454.69;;;26.56;62.95
42169;BME280;27838;43.858;25.974;2023-07-31T03:23:22;100461.50;;;26.61;62.77
42169;BME280;27838;43.858;25.974;2023-07-31T03:26:06;100456.16;;;26.61;62.45
42169;BME280;27838;43.858;25.974;2023-07-31T03:28:33;100457.66;;;26.65;62.60
42169;BME280;27838;43.858;25.974;2023-07-31T03:31:00;100446.97;;;26.65;62.33
42169;BME280;27838;43.858;25.974;2023-07-31T03:33:26;100450.63;;;26.64;62.83
42169;BME280;27838;43.858;25.974;2023-07-31T03:35:53;100450.81;;;26.61;62.88
42169;BME280;27838;43.858;25.974;2023-07-31T03:38:19;100453.50;;;26.61;63.01
42169;BME280;27838;43.858;25.974;2023-07-31T03:40:46;100449.00;;;26.61;63.09
42169;BME280;27838;43.858;25.974;2023-07-31T03:43:13;100447.63;;;26.55;62.88
42169;BME280;27838;43.858;25.974;2023-07-31T03:45:39;100457.66;;;26.65;62.87
42169;BME280;27838;43.858;25.974;2023-07-31T03:48:06;100446.97;;;26.65;62.89
42169;BME280;27838;43.858;25.974;2023-07-31T03:50:33;100445.28;;;26.64;63.04
42169;BME280;27838;43.858;25.974;2023-07-31T03:52:59;100450.81;;;26.61;63.79
42169;BME280;27838;43.858;25.974;2023-07-31T03:55:26;100451.38;;;26.66;64.23
42169;BME280;27838;43.858;25.974;2023-07-31T03:57:52;100453.84;;;26.69;63.25
42169;BME280;27838;43.858;25.974;2023-07-31T04:00:19;100450.19;;;26.70;62.92
42169;BME280;27838;43.858;25.974;2023-07-31T04:02:46;100446.97;;;26.78;62.91
42169;BME280;27838;43.858;25.974;2023-07-31T04:05:13;100449.75;;;26.76;63.08
42169;BME280;27838;43.858;25.974;2023-07-31T04:07:39;100465.56;;;26.79;63.16
42169;BME280;27838;43.858;25.974;2023-07-31T04:10:06;100461.00;;;26.68;63.73
42169;BME280;27838;43.858;25.974;2023-07-31T04:12:33;100473.28;;;26.71;64.46
42169;BME280;27838;43.858;25.974;2023-07-31T04:14:59;100465.16;;;26.72;64.87
42169;BME280;27838;43.858;25.974;2023-07-31T04:17:26;100465.78;;;26.76;64.03
42169;BME280;27838;43.858;25.974;2023-07-31T04:19:52;100451.16;;;26.69;64.10
42169;BME280;27838;43.858;25.974;2023-07-31T04:22:19;100471.75;;;26.80;63.78
42169;BME280;27838;43.858;25.974;2023-07-31T04:24:47;100457.34;;;26.69;63.92
42169;BME280;27838;43.858;25.974;2023-07-31T04:27:13;100474.53;;;26.78;64.37
42169;BME280;27838;43.858;25.974;2023-07-31T04:29:40;100464.31;;;26.72;64.52
42169;BME280;27838;43.858;25.974;2023-07-31T04:32:08;100479.06;;;26.78;65.03
42169;BME280;27838;43.858;25.974;2023-07-31T04:34:34;100482.03;;;26.73;65.09
42169;BME280;27838;43.858;25.974;2023-07-31T04:37:01;100475.72;;;26.61;64.79
42169;BME280;27838;43.858;25.974;2023-07-31T04:39:27;100489.75;;;26.65;65.18
42169;BME280;27838;43.858;25.974;2023-07-31T04:41:54;100491.69;;;26.63;65.22
42169;BME280;27838;43.858;25.974;2023-07-31T04:44:20;100488.16;;;26.62;64.92
42169;BME280;27838;43.858;25.974;2023-07-31T04:46:47;100477.53;;;26.61;65.19
42169;BME280;27838;43.858;25.974;2023-07-31T04:49:13;100474.13;;;26.59;64.72
42169;BME280;27838;43.858;25.974;2023-07-31T04:51:40;100489.75;;;26.65;65.03
42169;BME280;27838;43.858;25.974;2023-07-31T04:54:06;100497.66;;;26.66;65.20
42169;BME280;27838;43.858;25.974;2023-07-31T04:56:33;100489.75;;;26.65;64.87
42169;BME280;27838;43.858;25.974;2023-07-31T04:59:00;100489.53;;;26.68;65.27
42169;BME280;27838;43.858;25.974;2023-07-31T05:01:26;100492.94;;;26.70;65.13
42169;BME280;27838;43.858;25.974;2023-07-31T05:03:53;100494.66;;;26.71;65.27
42169;BME280;27838;43.858;25.974;2023-07-31T05:06:19;100492.94;;;26.70;65.20
42169;BME280;27838;43.858;25.974;2023-07-31T05:08:46;100489.31;;;26.71;65.62
42169;BME280;27838;43.858;25.974;2023-07-31T05:11:13;100492.94;;;26.70;65.80
42169;BME280;27838;43.858;25.974;2023-07-31T05:13:39;100496.50;;;26.70;65.68
42169;BME280;27838;43.858;25.974;2023-07-31T05:16:06;100490.06;;;26.73;65.53
42169;BME280;27838;43.858;25.974;2023-07-31T05:18:32;100486.44;;;26.74;65.73
42169;BME280;27838;43.858;25.974;2023-07-31T05:20:59;100496.16;;;26.75;65.57
42169;BME280;27838;43.858;25.974;2023-07-31T05:23:25;100499.81;;;26.74;66.15
42169;BME280;27838;43.858;25.974;2023-07-31T05:25:52;100501.50;;;26.75;66.65
42169;BME280;27838;43.858;25.974;2023-07-31T05:28:18;100488.38;;;26.72;65.92
42169;BME280;27838;43.858;25.974;2023-07-31T05:30:45;100494.09;;;26.79;65.54
42169;BME280;27838;43.858;25.974;2023-07-31T05:33:11;100501.06;;;26.81;65.77
42169;BME280;27838;43.858;25.974;2023-07-31T05:35:38;100492.19;;;26.81;65.07
42169;BME280;27838;43.858;25.974;2023-07-31T05:38:04;100505.22;;;26.85;65.28
42169;BME280;27838;43.858;25.974;2023-07-31T05:40:33;100498.28;;;26.83;65.50
42169;BME280;27838;43.858;25.974;2023-07-31T05:42:59;100503.63;;;26.83;65.25
42169;BME280;27838;43.858;25.974;2023-07-31T05:45:26;100506.19;;;26.84;66.27
42169;BME280;27838;43.858;25.974;2023-07-31T05:47:52;100503.53;;;26.84;66.40
42169;BME280;27838;43.858;25.974;2023-07-31T05:50:19;100521.16;;;26.87;65.60
42169;BME280;27838;43.858;25.974;2023-07-31T05:52:45;100512.94;;;26.90;65.36
42169;BME280;27838;43.858;25.974;2023-07-31T05:55:12;100512.81;;;26.91;65.57
42169;BME280;27838;43.858;25.974;2023-07-31T05:57:38;100517.28;;;26.91;65.13
42169;BME280;27838;43.858;25.974;2023-07-31T06:00:05;100513.03;;;26.88;64.21
42169;BME280;27838;43.858;25.974;2023-07-31T06:02:32;100515.59;;;26.90;64.00
42169;BME280;27838;43.858;25.974;2023-07-31T06:05:02;100523.72;;;26.88;64.31
42169;BME280;27838;43.858;25.974;2023-07-31T06:07:29;100527.25;;;26.89;63.67
42169;BME280;27838;43.858;25.974;2023-07-31T06:09:56;100523.41;;;26.93;63.90
42169;BME280;27838;43.858;25.974;2023-07-31T06:12:27;100529.50;;;26.82;64.21
42169;BME280;27838;43.858;25.974;2023-07-31T06:14:54;100526.50;;;26.87;64.56
42169;BME280;27838;43.858;25.974;2023-07-31T06:17:20;100523.31;;;26.94;65.05
42169;BME280;27838;43.858;25.974;2023-07-31T06:19:47;100526.81;;;26.95;65.21
42169;BME280;27838;43.858;25.974;2023-07-31T06:22:13;100528.41;;;26.98;65.91
42169;BME280;27838;43.858;25.974;2023-07-31T06:24:40;100523.69;;;27.01;65.69
42169;BME280;27838;43.858;25.974;2023-07-31T06:27:06;100531.59;;;27.03;66.65
42169;BME280;27838;43.858;25.974;2023-07-31T06:29:34;100536.94;;;27.03;66.73
42169;BME280;27838;43.858;25.974;2023-07-31T06:32:00;100541.34;;;27.04;65.52
42169;BME280;27838;43.858;25.974;2023-07-31T06:34:27;100549.25;;;27.05;66.12
42169;BME280;27838;43.858;25.974;2023-07-31T06:36:53;100549.47;;;27.02;66.70
42169;BME280;27838;43.858;25.974;2023-07-31T06:39:20;100557.09;;;26.96;67.38
42169;BME280;27838;43.858;25.974;2023-07-31T06:41:46;100548.53;;;26.90;66.75
42169;BME280;27838;43.858;25.974;2023-07-31T06:44:13;100545.13;;;26.88;67.24
42169;BME280;27838;43.858;25.974;2023-07-31T06:46:39;100538.03;;;26.87;67.37
42169;BME280;27838;43.858;25.974;2023-07-31T06:49:06;100546.31;;;26.84;67.47
42169;BME280;27838;43.858;25.974;2023-07-31T06:51:33;100549.19;;;26.81;67.61
42169;BME280;27838;43.858;25.974;2023-07-31T06:54:01;100541.69;;;26.73;68.19
42169;BME280;27838;43.858;25.974;2023-07-31T06:56:27;100542.69;;;26.72;68.06
42169;BME280;27838;43.858;25.974;2023-07-31T06:58:55;100535.44;;;26.62;67.41
42169;BME280;27838;43.858;25.974;2023-07-31T07:01:22;100551.53;;;26.60;66.75
42169;BME280;27838;43.858;25.974;2023-07-31T07:03:48;100543.81;;;26.55;67.56
42169;BME280;27838;43.858;25.974;2023-07-31T07:06:16;100539.13;;;26.46;66.32
42169;BME280;27838;43.858;25.974;2023-07-31T07:08:43;100541.47;;;26.38;66.35
42169;BME280;27838;43.858;25.974;2023-07-31T07:11:10;100549.50;;;26.38;66.65
42169;BME280;27838;43.858;25.974;2023-07-31T07:13:36;100549.09;;;26.44;67.21
42169;BME280;27838;43.858;25.974;2023-07-31T07:16:03;100553.88;;;26.52;66.27
42169;BME280;27838;43.858;25.974;2023-07-31T07:18:30;100551.09;;;26.53;66.15
42169;BME280;27838;43.858;25.974;2023-07-31T07:20:56;100566.59;;;26.61;66.52
42169;BME280;27838;43.858;25.974;2023-07-31T07:23:24;100571.34;;;26.70;66.99
42169;BME280;27838;43.858;25.974;2023-07-31T07:25:51;100558.81;;;26.71;66.31
42169;BME280;27838;43.858;25.974;2023-07-31T07:28:18;100555.19;;;26.72;65.74
42169;BME280;27838;43.858;25.974;2023-07-31T07:30:44;100556.06;;;26.72;64.88
42169;BME280;27838;43.858;25.974;2023-07-31T07:33:11;100551.53;;;26.60;64.21
42169;BME280;27838;43.858;25.974;2023-07-31T07:35:37;100563.84;;;26.63;65.08
42169;BME280;27838;43.858;25.974;2023-07-31T07:38:04;100569.00;;;26.66;65.58
42169;BME280;27838;43.858;25.974;2023-07-31T07:40:31;100574.22;;;26.67;65.50
42169;BME280;27838;43.858;25.974;2023-07-31T07:42:57;100578.25;;;26.60;64.45
42169;BME280;27838;43.858;25.974;2023-07-31T07:45:25;100574.22;;;26.54;64.93
42169;BME280;27838;43.858;25.974;2023-07-31T07:47:52;100577.28;;;26.48;64.25
42169;BME280;27838;43.858;25.974;2023-07-31T07:50:18;100553.34;;;26.34;64.33
42169;BME280;27838;43.858;25.974;2023-07-31T07:52:45;100568.72;;;26.43;64.37
42169;BME280;27838;43.858;25.974;2023-07-31T07:55:12;100569.72;;;26.42;64.47
42169;BME280;27838;43.858;25.974;2023-07-31T07:57:38;100579.22;;;26.46;64.68
42169;BME280;27838;43.858;25.974;2023-07-31T08:00:05;100592.78;;;26.43;65.05
42169;BME280;27838;43.858;25.974;2023-07-31T08:02:32;100590.97;;;26.44;65.12
42169;BME280;27838;43.858;25.974;2023-07-31T08:04:59;100595.91;;;26.50;64.87
42169;BME280;27838;43.858;25.974;2023-07-31T08:07:25;100596.00;;;26.48;65.01
42169;BME280;27838;43.858;25.974;2023-07-31T08:09:52;100592.56;;;26.46;64.78
42169;BME280;27838;43.858;25.974;2023-07-31T08:12:19;100590.66;;;26.48;65.26
42169;BME280;27838;43.858;25.974;2023-07-31T08:14:45;100594.28;;;26.47;65.51
42169;BME280;27838;43.858;25.974;2023-07-31T08:17:12;100599.22;;;26.53;65.81
42169;BME280;27838;43.858;25.974;2023-07-31T08:19:38;100599.00;;;26.56;65.84
42169;BME280;27838;43.858;25.974;2023-07-31T08:22:05;100597.28;;;26.55;65.59
42169;BME280;27838;43.858;25.974;2023-07-31T08:24:32;100600.69;;;26.57;65.20
42169;BME280;27838;43.858;25.974;2023-07-31T08:26:58;100596.91;;;26.62;65.68
42169;BME280;27838;43.858;25.974;2023-07-31T08:29:25;100595.16;;;26.61;64.65
42169;BME280;27838;43.858;25.974;2023-07-31T08:31:51;100591.94;;;26.55;63.93
42169;BME280;27838;43.858;25.974;2023-07-31T08:34:18;100591.94;;;26.55;63.87
42169;BME280;27838;43.858;25.974;2023-07-31T08:36:44;100589.47;;;26.52;64.29
42169;BME280;27838;43.858;25.974;2023-07-31T08:39:11;100586.22;;;26.62;64.06
42169;BME280;27838;43.858;25.974;2023-07-31T08:41:40;100574.53;;;26.63;64.34
42169;BME280;27838;43.858;25.974;2023-07-31T08:44:07;100574.13;;;26.69;63.94
42169;BME280;27838;43.858;25.974;2023-07-31T08:46:34;100584.81;;;26.82;62.87
42169;BME280;27838;43.858;25.974;2023-07-31T08:49:04;100589.38;;;26.92;62.94
42169;BME280;27838;43.858;25.974;2023-07-31T08:51:33;100589.81;;;26.99;63.34
42169;BME280;27838;43.858;25.974;2023-07-31T08:54:00;100599.00;;;27.08;63.17
42169;BME280;27838;43.858;25.974;2023-07-31T08:56:29;100606.28;;;27.06;63.03
42169;BME280;27838;43.858;25.974;2023-07-31T08:58:57;100603.72;;;27.04;62.54
42169;BME280;27838;43.858;25.974;2023-07-31T09:01:25;100595.59;;;27.06;61.88
42169;BME280;27838;43.858;25.974;2023-07-31T09:03:53;100594.50;;;27.08;61.85
42169;BME280;27838;43.858;25.974;2023-07-31T09:06:21;100600.19;;;27.04;61.73
42169;BME280;27838;43.858;25.974;2023-07-31T09:08:50;100599.97;;;27.07;61.99
42169;BME280;27838;43.858;25.974;2023-07-31T09:11:18;100603.19;;;27.12;62.17
42169;BME280;27838;43.858;25.974;2023-07-31T09:13:45;100601.13;;;27.16;62.54
42169;BME280;27838;43.858;25.974;2023-07-31T09:16:12;100596.19;;;27.22;62.95
42169;BME280;27838;43.858;25.974;2023-07-31T09:18:53;100598.47;;;27.28;62.65
42169;BME280;27838;43.858;25.974;2023-07-31T09:21:22;100602.84;;;27.29;62.57
42169;BME280;27838;43.858;25.974;2023-07-31T09:23:49;100606.03;;;27.35;62.85
42169;BME280;27838;43.858;25.974;2023-07-31T09:26:35;100598.66;;;27.38;61.71
42169;BME280;27838;43.858;25.974;2023-07-31T09:29:05;100596.81;;;27.39;62.29
42169;BME280;27838;43.858;25.974;2023-07-31T09:31:41;100596.16;;;27.48;61.58
42169;BME280;27838;43.858;25.974;2023-07-31T09:34:07;100589.59;;;27.52;62.00
42169;BME280;27838;43.858;25.974;2023-07-31T09:39:10;100591.22;;;27.55;61.37
42169;BME280;27838;43.858;25.974;2023-07-31T09:41:46;100592.56;;;27.60;61.61
42169;BME280;27838;43.858;25.974;2023-07-31T09:44:16;100593.09;;;27.65;61.09
42169;BME280;27838;43.858;25.974;2023-07-31T09:46:43;100589.19;;;27.69;60.64
42169;BME280;27838;43.858;25.974;2023-07-31T09:49:13;100594.44;;;27.71;60.61
42169;BME280;27838;43.858;25.974;2023-07-31T09:51:42;100597.75;;;27.75;59.99
42169;BME280;27838;43.858;25.974;2023-07-31T09:54:10;100595.44;;;27.70;60.17
42169;BME280;27838;43.858;25.974;2023-07-31T09:56:48;100595.53;;;27.68;60.87
42169;BME280;27838;43.858;25.974;2023-07-31T09:59:17;100584.09;;;27.66;61.22
42169;BME280;27838;43.858;25.974;2023-07-31T10:01:45;100593.16;;;27.77;60.15
42169;BME280;27838;43.858;25.974;2023-07-31T10:04:13;100599.75;;;27.84;60.19
42169;BME280;27838;43.858;25.974;2023-07-31T10:06:42;100594.81;;;27.91;59.78
42169;BME280;27838;43.858;25.974;2023-07-31T10:09:11;100590.84;;;27.96;59.64
42169;BME280;27838;43.858;25.974;2023-07-31T10:11:47;100600.84;;;28.05;60.20
42169;BME280;27838;43.858;25.974;2023-07-31T10:14:19;100588.41;;;28.04;60.01
42169;BME280;27838;43.858;25.974;2023-07-31T10:16:47;100592.06;;;28.03;59.61
42169;BME280;27838;43.858;25.974;2023-07-31T10:19:14;100581.81;;;27.97;60.51
42169;BME280;27838;43.858;25.974;2023-07-31T10:21:42;100590.34;;;28.02;60.29
42169;BME280;27838;43.858;25.974;2023-07-31T10:24:09;100587.72;;;28.14;60.75
42169;BME280;27838;43.858;25.974;2023-07-31T10:26:37;100579.59;;;28.27;59.36
42169;BME280;27838;43.858;25.974;2023-07-31T10:29:06;100583.28;;;28.37;58.82
42169;BME280;27838;43.858;25.974;2023-07-31T10:31:34;100575.84;;;28.52;58.72
42169;BME280;27838;43.858;25.974;2023-07-31T10:34:01;100576.38;;;28.57;58.26
42169;BME280;27838;43.858;25.974;2023-07-31T10:36:28;100576.38;;;28.57;57.65
42169;BME280;27838;43.858;25.974;2023-07-31T10:38:55;100582.63;;;28.57;57.99
42169;BME280;27838;43.858;25.974;2023-07-31T10:41:31;100579.75;;;28.48;57.64
42169;BME280;27838;43.858;25.974;2023-07-31T10:43:59;100579.00;;;28.34;58.69
42169;BME280;27838;43.858;25.974;2023-07-31T10:46:27;100572.28;;;28.29;59.72
42169;BME280;27838;43.858;25.974;2023-07-31T10:49:02;100569.28;;;28.33;59.59
42169;BME280;27838;43.858;25.974;2023-07-31T10:51:33;100561.22;;;28.44;59.04
42169;BME280;27838;43.858;25.974;2023-07-31T10:54:15;100569.84;;;28.61;59.23
42169;BME280;27838;43.858;25.974;2023-07-31T10:56:46;100559.47;;;28.79;57.89
42169;BME280;27838;43.858;25.974;2023-07-31T10:59:13;100559.13;;;28.84;56.28
42169;BME280;27838;43.858;25.974;2023-07-31T11:01:53;100552.03;;;28.83;56.49
42169;BME280;27838;43.858;25.974;2023-07-31T11:04:26;100553.47;;;28.87;56.84
42169;BME280;27838;43.858;25.974;2023-07-31T11:07:00;100540.56;;;28.92;55.53
42169;BME280;27838;43.858;25.974;2023-07-31T11:09:32;100525.56;;;29.00;56.09
42169;BME280;27838;43.858;25.974;2023-07-31T11:11:59;100541.66;;;29.12;56.12
42169;BME280;27838;43.858;25.974;2023-07-31T11:14:26;100537.53;;;29.19;56.03
42169;BME280;27838;43.858;25.974;2023-07-31T11:16:53;100531.31;;;29.18;56.69
42169;BME280;27838;43.858;25.974;2023-07-31T11:19:25;100539.81;;;29.35;55.69
42169;BME280;27838;43.858;25.974;2023-07-31T11:21:52;100539.19;;;29.43;55.51
42169;BME280;27838;43.858;25.974;2023-07-31T11:24:19;100540.28;;;29.40;54.90
42169;BME280;27838;43.858;25.974;2023-07-31T11:26:52;100542.84;;;29.30;55.39
42169;BME280;27838;43.858;25.974;2023-07-31T11:29:20;100540.31;;;29.17;55.88
42169;BME280;27838;43.858;25.974;2023-07-31T11:31:47;100536.69;;;29.18;56.22
42169;BME280;27838;43.858;25.974;2023-07-31T11:34:14;100531.56;;;29.15;56.18
42169;BME280;27838;43.858;25.974;2023-07-31T11:36:52;100532.41;;;29.16;56.22
42169;BME280;27838;43.858;25.974;2023-07-31T11:39:19;100524.09;;;29.08;56.33
42169;BME280;27838;43.858;25.974;2023-07-31T11:41:46;100519.34;;;29.00;56.60
42169;BME280;27838;43.858;25.974;2023-07-31T11:44:12;100514.47;;;29.05;56.63
42169;BME280;27838;43.858;25.974;2023-07-31T11:46:39;100514.47;;;29.05;56.63
42169;BME280;27838;43.858;25.974;2023-07-31T11:49:05;100513.63;;;29.05;56.54
42169;BME280;27838;43.858;25.974;2023-07-31T11:51:32;100517.25;;;29.04;57.17
42169;BME280;27838;43.858;25.974;2023-07-31T11:54:01;100509.59;;;28.99;56.27
42169;BME280;27838;43.858;25.974;2023-07-31T11:56:28;100513.88;;;28.79;56.83
42169;BME280;27838;43.858;25.974;2023-07-31T11:58:58;100506.94;;;28.65;56.72
42169;BME280;27838;43.858;25.974;2023-07-31T12:01:27;100514.59;;;28.58;57.29
42169;BME280;27838;43.858;25.974;2023-07-31T12:03:54;100515.81;;;28.66;56.68
42169;BME280;27838;43.858;25.974;2023-07-31T12:06:32;100510.22;;;28.69;56.51
42169;BME280;27838;43.858;25.974;2023-07-31T12:09:05;100508.91;;;28.63;56.92
42169;BME280;27838;43.858;25.974;2023-07-31T12:11:52;100514.19;;;28.52;57.28
42169;BME280;27838;43.858;25.974;2023-07-31T12:14:26;100515.84;;;28.54;56.83
42169;BME280;27838;43.858;25.974;2023-07-31T12:16:55;100503.75;;;28.60;56.54
42169;BME280;27838;43.858;25.974;2023-07-31T12:19:22;100505.50;;;28.61;55.76
42169;BME280;27838;43.858;25.974;2023-07-31T12:21:49;100505.50;;;28.61;56.20
42169;BME280;27838;43.858;25.974;2023-07-31T12:24:18;100498.28;;;28.61;55.49
42169;BME280;27838;43.858;25.974;2023-07-31T12:26:45;100501.69;;;28.63;55.85
42169;BME280;27838;43.858;25.974;2023-07-31T12:29:12;100507.66;;;28.78;55.98
42169;BME280;27838;43.858;25.974;2023-07-31T12:31:41;100509.13;;;28.83;55.34
42169;BME280;27838;43.858;25.974;2023-07-31T12:34:18;100500.09;;;28.95;54.77
42169;BME280;27838;43.858;25.974;2023-07-31T12:36:46;100502.28;;;29.01;54.80
42169;BME280;27838;43.858;25.974;2023-07-31T12:39:14;100507.53;;;29.03;53.99
42169;BME280;27838;43.858;25.974;2023-07-31T12:41:41;100514.94;;;29.10;54.27
42169;BME280;27838;43.858;25.974;2023-07-31T12:44:07;100496.31;;;28.97;53.69
42169;BME280;27838;43.858;25.974;2023-07-31T12:46:35;100515.69;;;29.01;53.65
42169;BME280;27838;43.858;25.974;2023-07-31T12:49:02;100505.94;;;29.00;53.30
42169;BME280;27838;43.858;25.974;2023-07-31T12:51:28;100507.88;;;28.98;52.84